Tiempo atmosférico en la estación meteorológica de Arico, Santa Cruz de Tenerife (418 m.)

Fecha
DESCASC
Temp. máxima en grados centígrados (hora)
DESCASC
Temp. mínima en grados centígrados (hora)
DESCASC
Temp. media en grados centígrados
DESCASC
Racha de viento máxima en m/sg (hora)
DESCASC
Velocidad máxima media en intervalos de 10 minutos(hora)
DESCASC
Precipitaciones diarias en mm
DESCASC
Precipitaciones de 00:00 a 06:00 en mm
DESCASC
Precipitaciones de 06:00 a 12:00 en mm
DESCASC
Precipitaciones de 12:00 a 18:00 en mm
DESCASC
Precipitaciones de 18:00 a 24:00 en mm
DESCASC
23-11-2017 25.7 (11:40) 16.6 (04:40) 21.2 8.33 (11:00) 5 (10:10) 0 0 0 0 0
22-11-2017 24.4 (11:50) 16.7 (22:30) 20.6 8.33 (04:10) 5.56 (04:10) 0 0 0 0 0
21-11-2017 23.7 (13:30) 19.4 (21:00) 21.6 9.44 (23:30) 4.72 (12:00) 0 0 0 0 0
20-11-2017 26.6 (13:40) 14.7 (06:30) 20.7 8.89 (23:00) 4.17 (22:20) 0 0 0 0 0
19-11-2017 21.5 (13:00) 15.3 (00:00) 18.4 10.28 (16:50) 6.67 (14:20) 0 0 0 0 0
18-11-2017 21.9 (12:40) 15.2 (00:00) 18.5 8.06 (23:30) 5.56 (22:50) 0 0 0 0 0
17-11-2017 23.2 (13:10) 14.3 (00:00) 18.8 7.5 (13:30) 5 (15:50) 0 0 0 0 0
16-11-2017 21.5 (12:20) 13.8 (00:00) 17.7 7.5 (15:00) 4.44 (15:00) 0 0 0 0 0
15-11-2017 21.9 (11:40) 14.8 (00:00) 18.3 -- (--) -- (--) 0 0 0 0 0
14-11-2017 20.8 (14:00) 15.3 (00:00) 18 10.83 (12:20) 7.22 (10:30) 0 0 0 0 0
13-11-2017 20.2 (10:20) 15.5 (00:00) 17.9 8.89 (12:00) 6.11 (10:30) 0 0 0 0 0
12-11-2017 25.4 (13:00) 17.2 (00:00) 21.3 6.67 (10:50) 4.44 (11:00) 0 0 0 0 0
11-11-2017 25 (15:50) 15.9 (00:00) 20.4 9.44 (11:50) 5.83 (12:10) 0 0 0 0 0
10-11-2017 21.7 (12:30) 15.4 (00:00) 18.6 16.11 (14:50) 8.33 (12:50) 0 0 0 0 0
09-11-2017 21.8 (10:40) 17 (00:00) 19.4 11.94 (09:50) 7.78 (11:30) 0 0 0 0 0
08-11-2017 25.9 (12:30) 16.1 (00:00) 21 9.72 (17:20) 6.39 (21:10) 0 0 0 0 0
07-11-2017 21.3 (13:00) 15.8 (00:00) 18.5 13.61 (10:50) 8.06 (11:10) 0 0 0 0 0
06-11-2017 21.8 (11:50) 16.1 (00:00) 18.9 13.33 (10:50) 7.78 (11:30) 0 0 0 0 0
05-11-2017 21.9 (14:20) 16.1 (00:00) 19 16.67 (13:50) 10.28 (13:50) 0 0 0 0 0
04-11-2017 23 (12:30) 15.4 (00:00) 19.2 14.72 (11:50) 8.06 (12:00) 0 0 0 0 0
03-11-2017 23.9 (11:20) 15.9 (00:00) 19.9 6.67 (12:20) 3.61 (12:00) 0 0 0 0 0
02-11-2017 23.1 (12:30) 15.7 (02:20) 19.4 6.94 (10:20) 4.17 (06:50) 0 0 0 0 0
01-11-2017 23 (13:40) 15.1 (00:00) 19.1 10 (08:50) 5.83 (11:00) 0 0 0 0 0
31-10-2017 23.4 (13:20) 15.1 (00:00) 19.3 9.17 (11:20) 5.83 (11:40) 0 0 0 0 0
30-10-2017 24.1 (12:40) 15 (00:00) 19.6 7.78 (13:00) 5 (13:10) 0 0 0 0 0
29-10-2017 27 (12:40) 17.2 (00:00) 22.1 6.11 (00:50) 3.89 (12:00) 0 0 0 0 0
28-10-2017 28.5 (13:20) 20.9 (00:00) 24.7 5 (03:40) 3.06 (03:40) 0 0 0 0 0
27-10-2017 31.1 (12:10) 22.9 (00:00) 27 7.78 (09:10) 4.72 (14:40) 0 0 0 0 0
26-10-2017 31.5 (15:50) 23.2 (00:00) 27.4 8.06 (13:10) 4.72 (13:10) 0 0 0 0 0

Gráficas

Temp. máximas Temp. mínimas Temp. medias Precipitaciones Rachas de viento máximas Velocidades máximas media en intervalos de 10 minutos

Datos horarios

Fecha y hora oficial Temperatura (ºC) Velocidad del viento (km/h) Dirección del viento Racha (km/h) Dirección de racha Precipitación (mm) Presión (hPa) Tendencia (hPa) Humedad (%)
2017-11-24 23:00:00 23.5 26 Oeste 39 Oeste 0 -- -- 39
2017-11-24 22:00:00 21.2 16 Sudoeste 27 Sudoeste 0 -- -- 57
2017-11-24 21:00:00 18.6 6 Nordeste 17 Sudoeste 0 -- -- 77
2017-11-24 20:00:00 19.9 13 Sudoeste 25 Sudoeste 0 -- -- 48
2017-11-24 19:00:00 20.7 19 Sudoeste 32 Sudoeste 0 -- -- 40
2017-11-24 18:00:00 21.1 18 Sudoeste 32 Sudoeste 0 -- -- 41
2017-11-24 17:00:00 21.6 23 Sur 34 Sudoeste 0 -- -- 45
2017-11-24 16:00:00 21.6 21 Sudoeste 35 Sur 0 -- -- 55
2017-11-24 15:00:00 23.2 19 Sudoeste 29 Sudoeste 0 -- -- 62
2017-11-24 14:00:00 23.1 19 Sudoeste 28 Sudoeste 0 -- -- 60
2017-11-24 13:00:00 22.9 17 Sudoeste 28 Sur 0 -- -- 65
2017-11-24 12:00:00 23.1 17 Sudoeste 31 Sur 0 -- -- 74
2017-11-24 11:00:00 22 17 Sur 25 Sur 0 -- -- 77
2017-11-24 10:00:00 20.2 11 Sur 24 Sudoeste 0 -- -- 79
2017-11-24 09:00:00 18.2 5 Oeste 11 Oeste 0 -- -- 81
2017-11-24 08:00:00 17.1 4 Oeste 8 Este 0 -- -- 79
2017-11-24 07:00:00 19.3 5 Este 24 Sudoeste 0 -- -- 62
2017-11-24 06:00:00 17.4 9 Sudoeste 15 Sudoeste 0 -- -- 57
2017-11-24 05:00:00 17.1 3 Noroeste 12 Oeste 0 -- -- 58
2017-11-24 04:00:00 17.4 5 Norte 9 Noroeste 0 -- -- 56
2017-11-24 03:00:00 17.1 6 Norte 11 Norte 0 -- -- 64
2017-11-24 02:00:00 17 8 Noroeste 13 Oeste 0 -- -- 55
2017-11-24 01:00:00 16.7 6 Noroeste 13 Noroeste 0 -- -- 58
2017-11-24 00:00:00 17 5 Norte 8 Noroeste 0 -- -- 70
2017-11-23 23:00:00 17.2 6 Sudoeste 9 Sudoeste 0 -- -- 69
2017-11-23 22:00:00 17.3 8 Noroeste 12 Noroeste 0 -- -- 71
2017-11-23 21:00:00 17.3 2 Oeste 5 Oeste 0 -- -- 78
2017-11-23 20:00:00 17.4 0 Calma 11 Nordeste 0 -- -- 80
2017-11-23 19:00:00 18.1 4 Nordeste 8 Nordeste 0 -- -- 80
2017-11-23 18:00:00 19.9 4 Sudeste 21 Sur 0 -- -- 70
2017-11-23 17:00:00 21.8 11 Sudeste 19 Sur 0 -- -- 63
2017-11-23 16:00:00 22.9 10 Sudeste 20 Sudeste 0 -- -- 62
2017-11-23 15:00:00 23.9 12 Sudeste 21 Sudeste 0 -- -- 50
2017-11-23 14:00:00 24.2 8 Sudeste 23 Sudeste 0 -- -- 43
2017-11-23 13:00:00 24.2 10 Sudeste 24 Sudeste 0 -- -- 37
2017-11-23 12:00:00 24.6 10 Este 28 Sur 0 -- -- 35
2017-11-23 11:00:00 24.3 18 Sur 30 Sur 0 -- -- 23
2017-11-23 10:00:00 22.9 18 Sudoeste 26 Sudoeste 0 -- -- 21
2017-11-23 09:00:00 21 16 Sudoeste 21 Sudoeste 0 -- -- 21
2017-11-23 08:00:00 18.1 10 Oeste 17 Oeste 0 -- -- 23
2017-11-23 07:00:00 17.8 12 Oeste 17 Oeste 0 -- -- 23
2017-11-23 06:00:00 18.2 14 Oeste 19 Oeste 0 -- -- 23
2017-11-23 05:00:00 17.4 14 Oeste 18 Oeste 0 -- -- 25
2017-11-23 04:00:00 17.5 6 Este 17 Oeste 0 -- -- 73
2017-11-23 03:00:00 18.2 8 Oeste 15 Oeste 0 -- -- 24
2017-11-23 02:00:00 19.5 16 Oeste 25 Oeste 0 -- -- 21
2017-11-23 01:00:00 18.7 15 Oeste 18 Oeste 0 -- -- 22
2017-11-23 00:00:00 17.7 5 Norte 16 Noroeste 0 -- -- 29
2017-11-22 23:00:00 18.5 12 Noroeste 16 Noroeste 0 -- -- 25
2017-11-22 22:00:00 16.9 4 Noroeste 13 Noroeste 0 -- -- 63
2017-11-22 21:00:00 17.1 9 Noroeste 12 Noroeste 0 -- -- 72
2017-11-22 20:00:00 17.7 5 Norte 10 Oeste 0 -- -- 79
2017-11-22 19:00:00 18.6 7 Sudoeste 11 Oeste 0 -- -- 78
2017-11-22 18:00:00 20.2 4 Sudeste 21 Sur 0 -- -- 73
2017-11-22 17:00:00 22.1 14 Sur 23 Sur 0 -- -- 66
2017-11-22 16:00:00 23.2 15 Sur 25 Sur 0 -- -- 61
2017-11-22 15:00:00 23.9 15 Sur 29 Sur 0 -- -- 59
2017-11-22 14:00:00 23.9 18 Sur 28 Sur 0 -- -- 60
2017-11-22 13:00:00 23.9 16 Sur 28 Sur 0 -- -- 60
2017-11-22 12:00:00 24.4 14 Sur 23 Sur 0 -- -- 57
2017-11-22 11:00:00 23.7 13 Sur 22 Sur 0 -- -- 48
2017-11-22 10:00:00 22.9 12 Sur 18 Sudoeste 0 -- -- 39
2017-11-22 09:00:00 20.6 12 Sudoeste 18 Sudoeste 0 -- -- 38
2017-11-22 08:00:00 18.8 13 Oeste 19 Sudoeste 0 -- -- 23
2017-11-22 07:00:00 19.4 10 Sudoeste 17 Sudoeste 0 -- -- 27
2017-11-22 06:00:00 20.4 13 Sudoeste 23 Sudoeste 0 -- -- 21
2017-11-22 05:00:00 20.4 15 Oeste 30 Oeste 0 -- -- 20
2017-11-22 04:00:00 20.5 19 Oeste 28 Oeste 0 -- -- 19
2017-11-22 03:00:00 19.7 15 Oeste 26 Oeste 0 -- -- 19
2017-11-22 02:00:00 20.1 18 Oeste 28 Oeste 0 -- -- 19
2017-11-22 01:00:00 20.3 15 Oeste 29 Oeste 0 -- -- 19
2017-11-22 00:00:00 20.9 15 Oeste 34 Oeste 0 -- -- 19
2017-11-21 23:00:00 21.1 15 Oeste 23 Oeste 0 -- -- 19
2017-11-21 22:00:00 20.5 12 Oeste 19 Oeste 0 -- -- 18
2017-11-21 21:00:00 19.4 10 Oeste 14 Oeste 0 -- -- 22
2017-11-21 20:00:00 20 9 Oeste 14 Oeste 0 -- -- 23
2017-11-21 19:00:00 20.2 11 Oeste 17 Sudoeste 0 -- -- 23
2017-11-21 18:00:00 21 11 Sudoeste 17 Sudoeste 0 -- -- 24
2017-11-21 17:00:00 21.6 11 Sudoeste 21 Sur 0 -- -- 25
2017-11-21 16:00:00 22.4 14 Sur 23 Sur 0 -- -- 26
2017-11-21 15:00:00 23.4 15 Sur 26 Sur 0 -- -- 23
2017-11-21 14:00:00 23.4 14 Sur 23 Sur 0 -- -- 32
2017-11-21 13:00:00 22.7 14 Sudoeste 23 Sudoeste 0 -- -- 26
2017-11-21 12:00:00 22.4 17 Sur 26 Sudoeste 0 -- -- 27
2017-11-21 11:00:00 23.1 12 Sudoeste 21 Sur 0 -- -- 24
2017-11-21 10:00:00 23 9 Sur 20 Sudoeste 0 -- -- 25
2017-11-21 09:00:00 21.3 13 Oeste 21 Oeste 0 -- -- 24
2017-11-21 08:00:00 20.3 14 Oeste 27 Oeste 0 -- -- 23
2017-11-21 07:00:00 19.7 13 Oeste 21 Noroeste 0 -- -- 24
2017-11-21 06:00:00 20.1 12 Noroeste 23 Noroeste 0 -- -- 22
2017-11-21 05:00:00 20.2 14 Noroeste 23 Oeste 0 -- -- 22
2017-11-21 04:00:00 20.2 10 Oeste 18 Oeste 0 -- -- 22
2017-11-21 03:00:00 20.7 12 Oeste 20 Noroeste 0 -- -- 21
2017-11-21 02:00:00 20.9 9 Oeste 20 Noroeste 0 -- -- 21
2017-11-21 01:00:00 21 12 Noroeste 24 Oeste 0 -- -- 21
2017-11-21 00:00:00 21 14 Noroeste 23 Noroeste 0 -- -- 21
2017-11-20 23:00:00 21.3 14 Oeste 32 Noroeste 0 -- -- 20
2017-11-20 22:00:00 21.1 11 Oeste 26 Noroeste 0 -- -- 21
2017-11-20 21:00:00 21.3 14 Oeste 22 Oeste 0 -- -- 20
2017-11-20 20:00:00 21.5 10 Oeste 25 Oeste 0 -- -- 20
2017-11-20 19:00:00 20.7 14 Oeste 20 Oeste 0 -- -- 21
2017-11-20 18:00:00 22.8 9 Sudoeste 19 Sudoeste 0 -- -- 20
2017-11-20 17:00:00 24.7 12 Sudoeste 22 Sudoeste 0 -- -- 20
2017-11-20 16:00:00 25.7 12 Sur 20 Sur 0 -- -- 28
2017-11-20 15:00:00 25.9 11 Sur 21 Sudeste 0 -- -- 29
2017-11-20 14:00:00 26.3 10 Sudeste 19 Sudeste 0 -- -- 31
2017-11-20 13:00:00 26.3 11 Sudeste 21 Sudeste 0 -- -- 28
2017-11-20 12:00:00 24.5 7 Este 18 Sudeste 0 -- -- 42
2017-11-20 11:00:00 24.2 8 Nordeste 24 Este 0 -- -- 48
2017-11-20 10:00:00 22.7 7 Noroeste 25 Sudeste 0 -- -- 42
2017-11-20 09:00:00 19.6 11 Norte 18 Noroeste 0 -- -- 40
2017-11-20 08:00:00 15.5 5 Norte 19 Este 0 -- -- 56
2017-11-20 07:00:00 15.1 8 Oeste 17 Norte 0 -- -- 71
2017-11-20 06:00:00 15.1 4 Nordeste 11 Nordeste 0 -- -- 77
2017-11-20 05:00:00 15.2 6 Norte 18 Nordeste 0 -- -- 78
2017-11-20 04:00:00 15.6 6 Norte 15 Nordeste 0 -- -- 72
2017-11-20 03:00:00 15.9 8 Norte 18 Nordeste 0 -- -- 69
2017-11-20 02:00:00 15.4 9 Norte 17 Norte 0 -- -- 74
2017-11-20 01:00:00 15.7 10 Nordeste 22 Nordeste 0 -- -- 85
2017-11-20 00:00:00 16 10 Norte 28 Norte 0 -- -- 80
2017-11-19 23:00:00 16.1 11 Nordeste 20 Nordeste 0 -- -- 75
2017-11-19 22:00:00 16.2 12 Nordeste 35 Nordeste 0 -- -- 82
2017-11-19 21:00:00 16.4 17 Nordeste 32 Nordeste 0 -- -- 86
2017-11-19 20:00:00 16.8 21 Nordeste 32 Nordeste 0 -- -- 86
2017-11-19 19:00:00 16.9 20 Nordeste 34 Nordeste 0 -- -- 85
2017-11-19 18:00:00 17.2 19 Nordeste 36 Nordeste 0 -- -- 81
2017-11-19 17:00:00 18.4 23 Nordeste 37 Nordeste 0 -- -- 78
2017-11-19 16:00:00 19.3 21 Nordeste 35 Nordeste 0 -- -- 73
2017-11-19 15:00:00 19.4 23 Nordeste 35 Nordeste 0 -- -- 76
2017-11-19 14:00:00 21 21 Este 33 Este 0 -- -- 64
2017-11-19 13:00:00 21.5 18 Nordeste 33 Nordeste 0 -- -- 63
2017-11-19 12:00:00 20.8 18 Nordeste 30 Este 0 -- -- 69
2017-11-19 11:00:00 19.1 19 Nordeste 32 Nordeste 0 -- -- 77
2017-11-19 10:00:00 18.5 18 Nordeste 29 Este 0 -- -- 78
2017-11-19 09:00:00 16.5 12 Nordeste 22 Nordeste 0 -- -- 90
2017-11-19 08:00:00 15.5 13 Nordeste 19 Nordeste 0 -- -- 86
2017-11-19 07:00:00 15.6 9 Norte 17 Norte 0 -- -- 81
2017-11-19 06:00:00 15.7 10 Norte 23 Nordeste 0 -- -- 87
2017-11-19 05:00:00 15.7 12 Nordeste 27 Nordeste 0 -- -- 90
2017-11-19 04:00:00 15.4 10 Norte 17 Nordeste 0 -- -- 86
2017-11-19 03:00:00 15.4 6 Norte 13 Norte 0 -- -- 80
2017-11-19 02:00:00 15.8 8 Norte 23 Nordeste 0 -- -- 87
2017-11-19 01:00:00 16.4 17 Nordeste 30 Nordeste 0 -- -- 89
2017-11-19 00:00:00 16.7 19 Nordeste 29 Nordeste 0 -- -- 90
2017-11-18 23:00:00 16.7 18 Nordeste 28 Nordeste 0 -- -- 89
2017-11-18 22:00:00 16.8 17 Nordeste 22 Nordeste 0 -- -- 89
2017-11-18 21:00:00 17.1 16 Nordeste 27 Nordeste 0 -- -- 87
2017-11-18 20:00:00 17.3 17 Nordeste 25 Nordeste 0 -- -- 88
2017-11-18 19:00:00 17.2 13 Nordeste 24 Nordeste 0 -- -- 87
2017-11-18 18:00:00 17.8 14 Nordeste 25 Nordeste 0 -- -- 84
2017-11-18 17:00:00 18.5 12 Nordeste 22 Nordeste 0 -- -- 81
2017-11-18 16:00:00 20.5 13 Nordeste 21 Este 0 -- -- 72
2017-11-18 15:00:00 20.4 8 Este 19 Este 0 -- -- 71
2017-11-18 14:00:00 20.8 10 Este 23 Este 0 -- -- 71
2017-11-18 13:00:00 21.9 13 Este 22 Este 0 -- -- 66
2017-11-18 12:00:00 21 11 Este 22 Nordeste 0 -- -- 67
2017-11-18 11:00:00 19.7 10 Este 18 Este 0 -- -- 74
2017-11-18 10:00:00 18.5 9 Nordeste 15 Nordeste 0 -- -- 77
2017-11-18 09:00:00 16.9 6 Norte 13 Noroeste 0 -- -- 84
2017-11-18 08:00:00 15.7 8 Norte 15 Norte 0 -- -- 88
2017-11-18 07:00:00 15.3 8 Norte 15 Norte 0 -- -- 89
2017-11-18 06:00:00 15.2 9 Norte 14 Noroeste 0 -- -- 89
2017-11-18 05:00:00 15.3 8 Norte 13 Norte 0 -- -- 90
2017-11-18 04:00:00 15.3 8 Norte 12 Norte 0 -- -- 90
2017-11-18 03:00:00 15.7 6 Norte 15 Norte 0 -- -- 88
2017-11-18 02:00:00 16.1 2 Sudoeste 8 Nordeste 0 -- -- 90
2017-11-18 01:00:00 16.4 3 Norte 17 Nordeste 0 -- -- 90
2017-11-18 00:00:00 16.6 8 Nordeste 17 Nordeste 0 -- -- 90
2017-11-17 23:00:00 16.8 12 Nordeste 20 Nordeste 0 -- -- 90
2017-11-17 22:00:00 17 8 Nordeste 18 Nordeste 0 -- -- 87
2017-11-17 21:00:00 17.1 10 Nordeste 21 Nordeste 0 -- -- 88
2017-11-17 20:00:00 17 17 Nordeste 24 Nordeste 0 -- -- 89
2017-11-17 19:00:00 17.3 17 Nordeste 23 Nordeste 0 -- -- 87
2017-11-17 18:00:00 17.6 12 Nordeste 22 Nordeste 0 -- -- 85
2017-11-17 17:00:00 18.3 13 Nordeste 25 Nordeste 0 -- -- 81
2017-11-17 16:00:00 19.9 14 Nordeste 27 Nordeste 0 -- -- 74
2017-11-17 15:00:00 20.5 14 Nordeste 23 Este 0 -- -- 72
2017-11-17 14:00:00 22 14 Este 27 Este 0 -- -- 67
2017-11-17 13:00:00 22.8 12 Este 23 Este 0 -- -- 65
2017-11-17 12:00:00 22.4 11 Este 21 Este 0 -- -- 67
2017-11-17 11:00:00 21.1 8 Este 18 Este 0 -- -- 69
2017-11-17 10:00:00 19.4 9 Este 18 Nordeste 0 -- -- 76
2017-11-17 09:00:00 16.9 6 Nordeste 14 Norte 0 -- -- 89
2017-11-17 08:00:00 15.1 6 Norte 18 Norte 0 -- -- 92
2017-11-17 07:00:00 14.8 9 Norte 20 Norte 0 -- -- 92
2017-11-17 06:00:00 14.9 10 Norte 19 Norte 0 -- -- 93
2017-11-17 05:00:00 14.6 10 Norte 15 Norte 0 -- -- 92
2017-11-17 04:00:00 14.5 6 Noroeste 16 Norte 0 -- -- 90
2017-11-17 03:00:00 14.8 10 Norte 14 Norte 0 -- -- 92
2017-11-17 02:00:00 15 6 Noroeste 15 Norte 0 -- -- 89
2017-11-17 01:00:00 15.6 8 Norte 13 Norte 0 -- -- 88
2017-11-17 00:00:00 15.3 9 Norte 16 Norte 0 -- -- 89
2017-11-16 23:00:00 15.4 10 Norte 17 Nordeste 0 -- -- 87
2017-11-16 22:00:00 15.9 7 Norte 17 Norte 0 -- -- 85
2017-11-16 21:00:00 16.4 9 Norte 22 Nordeste 0 -- -- 83
2017-11-16 20:00:00 16.7 10 Nordeste 18 Nordeste 0 -- -- 83
2017-11-16 19:00:00 16.7 9 Nordeste 17 Nordeste 0 -- -- 84
2017-11-16 18:00:00 17.2 10 Nordeste 21 Nordeste 0 -- -- 81
2017-11-16 17:00:00 18.8 14 Nordeste 26 Nordeste 0 -- -- 75
2017-11-16 16:00:00 20.1 14 Nordeste 23 Nordeste 0 -- -- 70
2017-11-16 15:00:00 20 16 Este 27 Este 0 -- -- 71
2017-11-16 14:00:00 20.7 15 Este 24 Este 0 -- -- 68
2017-11-16 13:00:00 20.7 13 Este 24 Este 0 -- -- 68
2017-11-16 12:00:00 21.2 12 Este 19 Este 0 -- -- 67
2017-11-16 11:00:00 20.6 13 Nordeste 24 Este 0 -- -- 68
2017-11-16 10:00:00 19.3 12 Nordeste 18 Este 0 -- -- 72
2017-11-16 09:00:00 17.3 8 Nordeste 13 Nordeste 0 -- -- 81
2017-11-16 08:00:00 14.1 9 Noroeste 13 Noroeste 0 -- -- 88
2017-11-16 07:00:00 14 10 Noroeste 15 Oeste 0 -- -- 88
2017-11-16 06:00:00 14.5 7 Noroeste 11 Noroeste 0 -- -- 87
2017-11-16 05:00:00 14.6 8 Noroeste 13 Noroeste 0 -- -- 88
2017-11-16 04:00:00 14.5 6 Noroeste 12 Noroeste 0 -- -- 87
2017-11-16 03:00:00 14.7 5 Noroeste 11 Norte 0 -- -- 84
2017-11-16 02:00:00 15.8 5 Noroeste 13 Norte 0 -- -- 81
2017-11-16 01:00:00 16 7 Norte 10 Nordeste 0 -- -- 82
2017-11-16 00:00:00 16.4 7 Nordeste 19 Nordeste 0 -- -- 83
2017-11-15 23:00:00 16.9 12 Nordeste 24 Nordeste 0 -- -- 83
2017-11-15 22:00:00 17.2 13 Nordeste 20 Nordeste 0 -- -- 82
2017-11-15 21:00:00 17.2 8 Nordeste 18 Nordeste 0 -- -- 82
2017-11-15 20:00:00 17.3 11 Nordeste 17 Nordeste 0 -- -- 81
2017-11-15 19:00:00 17.5 13 Nordeste 20 Nordeste 0 -- -- 82
2017-11-15 18:00:00 17.8 9 Este 18 Este 0 -- -- 81
2017-11-15 17:00:00 18.2 14 Nordeste 22 Nordeste 0 -- -- 76
2017-11-15 16:00:00 19.1 13 Nordeste 22 Este 0 -- -- 70
2017-11-15 15:00:00 18.9 14 Nordeste 26 Nordeste 0 -- -- 71
2017-11-15 14:00:00 19 15 Este 28 Este 0 -- -- 71
2017-11-15 13:00:00 18.7 18 Nordeste 29 Este 0 -- -- 73
2017-11-15 12:00:00 20.7 17 Este 28 Este 0 -- -- 67
2017-11-15 11:00:00 20.6 14 Este 32 Este 0 -- -- 64
2017-11-15 10:00:00 19.2 12 Nordeste 21 Este 0 -- -- 68
2017-11-15 09:00:00 17.7 7 Nordeste 12 Nordeste 0 -- -- 75
2017-11-15 08:00:00 15.6 6 Norte 13 Nordeste 0 -- -- 81
2017-11-15 07:00:00 15.7 7 Norte 14 Norte 0 -- -- 81
2017-11-15 06:00:00 15.8 8 Noroeste 14 Norte 0 -- -- 80
2017-11-15 05:00:00 15 9 Noroeste 14 Norte 0 -- -- 81
2017-11-15 04:00:00 14.8 9 Noroeste 15 Noroeste 0 -- -- 80
2017-11-15 03:00:00 15.3 8 Noroeste 11 Noroeste 0 -- -- 80
2017-11-15 02:00:00 15.6 6 Norte 15 Norte 0 -- -- 82
2017-11-15 01:00:00 16.4 8 Nordeste 13 Norte 0 -- -- 78
2017-11-15 00:00:00 16.7 8 Norte 18 Nordeste 0 -- -- 79
2017-11-14 23:00:00 16.8 10 Nordeste 24 Nordeste 0 -- -- 79
2017-11-14 22:00:00 16.9 16 Nordeste 28 Norte 0 -- -- 79
2017-11-14 21:00:00 17.1 15 Nordeste 25 Nordeste 0 -- -- 80
2017-11-14 20:00:00 17.3 16 Nordeste 26 Nordeste 0 -- -- 81
2017-11-14 19:00:00 17.5 16 Nordeste 30 Nordeste 0 -- -- 78
2017-11-14 18:00:00 17.5 17 Nordeste 30 Este 0 -- -- 77
2017-11-14 17:00:00 18.3 18 Nordeste 34 Este 0 -- -- 76
2017-11-14 16:00:00 19.2 19 Nordeste 30 Este 0 -- -- 71
2017-11-14 15:00:00 20.4 15 Nordeste 32 Este 0 -- -- 68
2017-11-14 14:00:00 20.8 18 Nordeste 35 Este 0 -- -- 68
2017-11-14 13:00:00 19.6 24 Nordeste 39 Nordeste 0 -- -- 70
2017-11-14 12:00:00 19.9 23 Nordeste 37 Este 0 -- -- 70
2017-11-14 11:00:00 19.2 22 Nordeste 37 Nordeste 0 -- -- 71
2017-11-14 10:00:00 18.6 22 Nordeste 35 Este -- -- -- 72
2017-11-14 09:00:00 17 16 Nordeste 27 Nordeste 0 -- -- 76
2017-11-14 08:00:00 16.6 15 Nordeste 27 Nordeste 0 -- -- 82
2017-11-14 07:00:00 15.8 18 Nordeste 26 Norte 0 -- -- 84
2017-11-14 06:00:00 15.4 10 Nordeste 19 Norte 0 -- -- 84
2017-11-14 05:00:00 15.4 9 Norte 20 Nordeste 0 -- -- 85
2017-11-14 04:00:00 16 10 Nordeste 21 Nordeste 0 -- -- 86
2017-11-14 03:00:00 16 5 Norte 11 Norte 0 -- -- 86
2017-11-14 02:00:00 16.4 6 Nordeste 15 Nordeste 0 -- -- 86
2017-11-14 01:00:00 16.1 4 Noroeste 19 Norte 0 -- -- 86
2017-11-14 00:00:00 16.4 5 Norte 15 Nordeste 0 -- -- 86
2017-11-13 23:00:00 16.2 9 Norte 15 Nordeste 0 -- -- 87
2017-11-13 22:00:00 16.9 8 Nordeste 23 Nordeste 0 -- -- 87
2017-11-13 21:00:00 17.4 13 Nordeste 24 Nordeste 0 -- -- 86
2017-11-13 20:00:00 17.6 18 Nordeste 31 Nordeste 0 -- -- 86
2017-11-13 19:00:00 17.7 11 Nordeste 21 Nordeste 0 -- -- 87
2017-11-13 18:00:00 17.8 12 Nordeste 25 Nordeste 0 -- -- 87
2017-11-13 17:00:00 18.1 15 Nordeste 26 Nordeste 0 -- -- 86
2017-11-13 16:00:00 18.6 16 Nordeste 26 Nordeste 0 -- -- 84
2017-11-13 15:00:00 19.4 15 Nordeste 27 Nordeste 0 -- -- 80
2017-11-13 14:00:00 18.7 19 Nordeste 27 Nordeste 0 -- -- 84
2017-11-13 13:00:00 19.5 17 Nordeste 30 Este 0 -- -- 81
2017-11-13 12:00:00 19.3 22 Nordeste 32 Nordeste 0 -- -- 82
2017-11-13 11:00:00 19.8 18 Nordeste 32 Este 0 -- -- 79
2017-11-13 10:00:00 20 15 Nordeste 24 Nordeste 0 -- -- 77
2017-11-13 09:00:00 18.2 13 Nordeste 29 Nordeste 0 -- -- 84
2017-11-13 08:00:00 16 8 Norte 18 Norte 0 -- -- 82
2017-11-13 07:00:00 15.7 8 Norte 17 Norte 0 -- -- 78
2017-11-13 06:00:00 16.1 10 Norte 19 Norte 0 -- -- 79
2017-11-13 05:00:00 16.1 11 Norte 26 Nordeste 0 -- -- 67
2017-11-13 04:00:00 15.6 5 Norte 10 Norte 0 -- -- 82
2017-11-13 03:00:00 16.2 4 Norte 9 Nordeste 0 -- -- 92
2017-11-13 02:00:00 16.6 4 Norte 17 Nordeste 0 -- -- 91
2017-11-13 01:00:00 17.7 12 Nordeste 19 Nordeste 0 -- -- 94
2017-11-13 00:00:00 17.4 7 Norte 15 Este 0 -- -- 94
2017-11-12 23:00:00 17.4 7 Nordeste 14 Norte 0 -- -- 94
2017-11-12 22:00:00 17.3 3 Nordeste 12 Nordeste 0 -- -- 93
2017-11-12 21:00:00 17.5 8 Norte 14 Nordeste 0 -- -- 92
2017-11-12 20:00:00 17.9 5 Norte 12 Nordeste 0 -- -- 92
2017-11-12 19:00:00 18.5 8 Nordeste 21 Nordeste 0 -- -- 91
2017-11-12 18:00:00 19.5 15 Nordeste 21 Nordeste 0 -- -- 88
2017-11-12 17:00:00 22.1 10 Nordeste 16 Este 0 -- -- 77
2017-11-12 16:00:00 23.9 10 Nordeste 17 Este 0 -- -- 67
2017-11-12 15:00:00 24.4 13 Nordeste 17 Nordeste 0 -- -- 63
2017-11-12 14:00:00 25.2 11 Nordeste 18 Este 0 -- -- 69
2017-11-12 13:00:00 25.4 12 Este 21 Nordeste 0 -- -- 64
2017-11-12 12:00:00 24.6 13 Nordeste 22 Nordeste 0 -- -- 68
2017-11-12 11:00:00 23.5 16 Nordeste 24 Nordeste 0 -- -- 73
2017-11-12 10:00:00 22.4 9 Nordeste 15 Nordeste 0 -- -- 73
2017-11-12 09:00:00 22.7 9 Nordeste 15 Nordeste 0 -- -- 40
2017-11-12 08:00:00 19.2 4 Norte 14 Nordeste 0 -- -- 51
2017-11-12 07:00:00 17.9 5 Norte 13 Norte 0 -- -- 64
2017-11-12 06:00:00 17.8 3 Norte 9 Nordeste 0 -- -- 77
2017-11-12 05:00:00 18.1 2 Oeste 5 Este 0 -- -- 90
2017-11-12 04:00:00 19 3 Nordeste 12 Nordeste 0 -- -- 84
2017-11-12 03:00:00 18.2 3 Nordeste 7 Este 0 -- -- 88
2017-11-12 02:00:00 18.9 3 Oeste 10 Noroeste 0 -- -- 80
2017-11-12 01:00:00 20.5 5 Noroeste 11 Noroeste 0 -- -- 47
2017-11-12 00:00:00 22.8 7 Noroeste 13 Noroeste 0 -- -- 32
2017-11-11 23:00:00 23.5 9 Noroeste 15 Norte 0 -- -- 30
2017-11-11 22:00:00 23.4 10 Noroeste 15 Noroeste 0 -- -- 30
2017-11-11 21:00:00 23 9 Noroeste 14 Noroeste 0 -- -- 32
2017-11-11 20:00:00 20 8 Noroeste 11 Norte 0 -- -- 43
2017-11-11 19:00:00 18.4 3 Norte 9 Nordeste 0 -- -- 91
2017-11-11 18:00:00 19.7 6 Nordeste 13 Nordeste 0 -- -- 86
2017-11-11 17:00:00 22.7 8 Nordeste 11 Este 0 -- -- 74
2017-11-11 16:00:00 24.5 6 Nordeste 10 Este 0 -- -- 67
2017-11-11 15:00:00 23.9 8 Este 24 Este 0 -- -- 69
2017-11-11 14:00:00 23.8 15 Nordeste 27 Este 0 -- -- 68
2017-11-11 13:00:00 23.3 20 Nordeste 31 Este 0 -- -- 70
2017-11-11 12:00:00 23.3 20 Nordeste 34 Este 0 -- -- 69
2017-11-11 11:00:00 23 16 Nordeste 24 Nordeste 0 -- -- 69
2017-11-11 10:00:00 21.7 12 Nordeste 20 Este 0 -- -- 73
2017-11-11 09:00:00 19.1 5 Nordeste 10 Este 0 -- -- 79
2017-11-11 08:00:00 16.2 0 Calma 6 Sudoeste 0 -- -- 88
2017-11-11 07:00:00 16.1 3 Sur 10 Este 0 -- -- 90
2017-11-11 06:00:00 16.1 3 Sudoeste 7 Sudoeste 0 -- -- 88
2017-11-11 05:00:00 16 4 Sudoeste 7 Sudoeste 0 -- -- 88
2017-11-11 04:00:00 16 5 Sudoeste 9 Este 0 -- -- 90
2017-11-11 03:00:00 16.2 3 Sudoeste 10 Sudoeste 0 -- -- 89
2017-11-11 02:00:00 16.3 4 Sudoeste 9 Este 0 -- -- 89
2017-11-11 01:00:00 16.3 3 Sur 12 Nordeste 0 -- -- 87
2017-11-11 00:00:00 16.3 4 Sudeste 10 Este 0 -- -- 87
2017-11-10 23:00:00 16.3 2 Norte 7 Norte 0 -- -- 85
2017-11-10 22:00:00 17 7 Nordeste 15 Nordeste 0 -- -- 84
2017-11-10 21:00:00 17.4 3 Este 9 Este 0 -- -- 80
2017-11-10 20:00:00 17.5 3 Nordeste 17 Nordeste 0 -- -- 81
2017-11-10 19:00:00 17.8 11 Nordeste 26 Nordeste 0 -- -- 81
2017-11-10 18:00:00 18.7 18 Nordeste 27 Este 0 -- -- 79
2017-11-10 17:00:00 20 17 Nordeste 33 Nordeste 0 -- -- 74
2017-11-10 16:00:00 20.7 21 Nordeste 41 Nordeste 0 -- -- 72
2017-11-10 15:00:00 21.4 27 Nordeste 58 Este 0 -- -- 71
2017-11-10 14:00:00 21.7 25 Nordeste 44 Nordeste 0 -- -- 70
2017-11-10 13:00:00 21.4 29 Nordeste 45 Este 0 -- -- 72
2017-11-10 12:00:00 21.5 27 Nordeste 44 Nordeste 0 -- -- 72
2017-11-10 11:00:00 21.4 26 Nordeste 43 Este 0 -- -- 74
2017-11-10 10:00:00 20.8 22 Nordeste 44 Nordeste 0 -- -- 73
2017-11-10 09:00:00 19.6 19 Nordeste 28 Este 0 -- -- 75
2017-11-10 08:00:00 16.6 6 Nordeste 17 Nordeste 0 -- -- 74
2017-11-10 07:00:00 16.1 6 Nordeste 15 Nordeste 0 -- -- 71
2017-11-10 06:00:00 16.3 6 Norte 14 Nordeste 0 -- -- 66
2017-11-10 05:00:00 15.4 7 Norte 15 Nordeste 0 -- -- 85
2017-11-10 04:00:00 16.1 6 Nordeste 30 Nordeste 0 -- -- 90
2017-11-10 03:00:00 16.7 7 Nordeste 23 Nordeste 0 -- -- 92
2017-11-10 02:00:00 16.9 11 Nordeste 30 Nordeste 0 -- -- 90
2017-11-10 01:00:00 17.6 20 Nordeste 31 Nordeste 0 -- -- 91
2017-11-10 00:00:00 17.6 18 Nordeste 35 Norte 0 -- -- 90
2017-11-09 23:00:00 17.9 23 Nordeste 37 Nordeste 0 -- -- 93
2017-11-09 22:00:00 18.2 21 Nordeste 33 Norte 0 -- -- 93
2017-11-09 21:00:00 18.3 22 Nordeste 37 Nordeste 0 -- -- 94
2017-11-09 20:00:00 18.5 19 Nordeste 39 Nordeste 0 -- -- 93
2017-11-09 19:00:00 18.6 20 Nordeste 42 Nordeste 0 -- -- 92
2017-11-09 18:00:00 19 21 Nordeste 35 Nordeste 0 -- -- 89
2017-11-09 17:00:00 19.8 22 Nordeste 39 Nordeste 0 -- -- 85
2017-11-09 16:00:00 20.7 22 Nordeste 35 Nordeste 0 -- -- 83
2017-11-09 15:00:00 20.5 23 Nordeste 41 Este 0 -- -- 84
2017-11-09 14:00:00 21.3 22 Nordeste 39 Nordeste 0 -- -- 79
2017-11-09 13:00:00 21.4 22 Nordeste 39 Nordeste 0 -- -- 80
2017-11-09 12:00:00 21.4 27 Nordeste 43 Nordeste 0 -- -- 76
2017-11-09 11:00:00 21.8 24 Nordeste 43 Este 0 -- -- 78
2017-11-09 10:00:00 21 23 Nordeste 43 Este 0 -- -- 83
2017-11-09 09:00:00 19.6 21 Nordeste 35 Nordeste 0 -- -- 90
2017-11-09 08:00:00 18.4 16 Nordeste 29 Nordeste 0 -- -- 93
2017-11-09 07:00:00 18 9 Norte 23 Nordeste 0 -- -- 89
2017-11-09 06:00:00 17.5 6 Norte 13 Noroeste 0 -- -- 86
2017-11-09 05:00:00 17.1 7 Noroeste 15 Noroeste 0 -- -- 84
2017-11-09 04:00:00 17.1 10 Norte 19 Norte 0 -- -- 86
2017-11-09 03:00:00 17.3 4 Norte 15 Nordeste 0 -- -- 90
2017-11-09 02:00:00 17.5 5 Nordeste 29 Este 0 -- -- 92
2017-11-09 01:00:00 18.2 18 Nordeste 30 Nordeste 0 -- -- 94
2017-11-09 00:00:00 18.2 10 Nordeste 24 Nordeste 0 -- -- 91
2017-11-08 23:00:00 18.6 13 Nordeste 30 Nordeste 0 -- -- 92
2017-11-08 22:00:00 18.7 18 Nordeste 34 Nordeste 0 -- -- 92
2017-11-08 21:00:00 19.1 22 Nordeste 34 Nordeste 0 -- -- 92
2017-11-08 20:00:00 19.2 18 Nordeste 30 Nordeste 0 -- -- 92
2017-11-08 19:00:00 19.3 14 Nordeste 33 Nordeste 0 -- -- 91
2017-11-08 18:00:00 20 18 Nordeste 35 Nordeste 0 -- -- 89
2017-11-08 17:00:00 20.5 20 Nordeste 31 Este 0 -- -- 87
2017-11-08 16:00:00 21.8 19 Nordeste 30 Este 0 -- -- 76
2017-11-08 15:00:00 22.5 17 Este 27 Este 0 -- -- 74
2017-11-08 14:00:00 24.3 18 Este 29 Este 0 -- -- 66
2017-11-08 13:00:00 25.5 10 Este 24 Este 0 -- -- 57
2017-11-08 12:00:00 25.6 10 Este 21 Este 0 -- -- 57
2017-11-08 11:00:00 24.6 8 Este 16 Este 0 -- -- 62
2017-11-08 10:00:00 23.3 8 Este 14 Este 0 -- -- 63
2017-11-08 09:00:00 19.9 5 Sudoeste 9 Sudoeste 0 -- -- 75
2017-11-08 08:00:00 16.9 6 Oeste 10 Noroeste 0 -- -- 67
2017-11-08 07:00:00 16.2 4 Oeste 11 Oeste 0 -- -- 73
2017-11-08 06:00:00 17 4 Oeste 14 Noroeste 0 -- -- 71
2017-11-08 05:00:00 16.7 10 Noroeste 18 Noroeste 0 -- -- 71
2017-11-08 04:00:00 17 10 Norte 19 Nordeste 0 -- -- 82
2017-11-08 03:00:00 16.8 5 Noroeste 16 Noroeste 0 -- -- 73
2017-11-08 02:00:00 17.7 5 Oeste 17 Oeste 0 -- -- 74
2017-11-08 01:00:00 17.2 9 Noroeste 17 Norte 0 -- -- 74
2017-11-08 00:00:00 17.2 7 Noroeste 19 Nordeste 0 -- -- 75
2017-11-07 23:00:00 17.6 7 Noroeste 18 Norte 0 -- -- 75
2017-11-07 22:00:00 17.9 5 Norte 22 Nordeste 0 -- -- 76
2017-11-07 21:00:00 17.6 4 Norte 22 Nordeste 0 -- -- 81
2017-11-07 20:00:00 18.1 16 Nordeste 30 Nordeste 0 -- -- 85
2017-11-07 19:00:00 18.6 17 Nordeste 30 Nordeste 0 -- -- 86
2017-11-07 18:00:00 19.3 19 Nordeste 35 Nordeste 0 -- -- 84
2017-11-07 17:00:00 20.7 21 Nordeste 35 Este 0 -- -- 77
2017-11-07 16:00:00 20.1 20 Nordeste 39 Este 0 -- -- 81
2017-11-07 15:00:00 20.1 26 Nordeste 45 Nordeste 0 -- -- 79
2017-11-07 14:00:00 21 27 Nordeste 45 Nordeste 0 -- -- 77
2017-11-07 13:00:00 21.3 26 Nordeste 44 Nordeste 0 -- -- 74
2017-11-07 12:00:00 20.4 26 Nordeste 48 Nordeste 0 -- -- 77
2017-11-07 11:00:00 19.9 27 Nordeste 49 Nordeste 0 -- -- 81
2017-11-07 10:00:00 20 25 Nordeste 40 Nordeste 0 -- -- 80
2017-11-07 09:00:00 18.3 21 Nordeste 33 Nordeste 0 -- -- 83
2017-11-07 08:00:00 17.6 19 Nordeste 39 Nordeste 0 -- -- 85
2017-11-07 07:00:00 17.3 19 Nordeste 40 Nordeste 0 -- -- 79
2017-11-07 06:00:00 16.5 13 Nordeste 19 Nordeste 0 -- -- 78
2017-11-07 05:00:00 15.9 10 Norte 22 Nordeste 0 -- -- 72
2017-11-07 04:00:00 15.9 9 Norte 15 Norte 0 -- -- 71
2017-11-07 03:00:00 16.4 8 Norte 21 Norte 0 -- -- 71
2017-11-07 02:00:00 16.1 12 Norte 21 Norte 0 -- -- 77
2017-11-07 01:00:00 16.1 9 Norte 21 Norte 0 -- -- 77
2017-11-07 00:00:00 16.4 10 Norte 19 Nordeste 0 -- -- 77
2017-11-06 23:00:00 16.3 9 Norte 16 Norte 0 -- -- 80
2017-11-06 22:00:00 17 10 Norte 31 Nordeste 0 -- -- 82
2017-11-06 21:00:00 17.9 21 Nordeste 38 Nordeste 0 -- -- 82
2017-11-06 20:00:00 17.9 26 Nordeste 42 Nordeste 0 -- -- 83
2017-11-06 19:00:00 18 22 Nordeste 37 Nordeste 0 -- -- 83
2017-11-06 18:00:00 18.3 22 Nordeste 36 Nordeste 0 -- -- 80
2017-11-06 17:00:00 19 23 Nordeste 37 Nordeste 0 -- -- 79
2017-11-06 16:00:00 19.4 24 Nordeste 42 Nordeste 0 -- -- 74
2017-11-06 15:00:00 19.3 24 Nordeste 44 Nordeste 0 -- -- 77
2017-11-06 14:00:00 19.4 22 Nordeste 45 Nordeste 0 -- -- 75
2017-11-06 13:00:00 19.5 28 Nordeste 47 Nordeste 0 -- -- 75
2017-11-06 12:00:00 21.5 27 Nordeste 41 Nordeste 0 -- -- 62
2017-11-06 11:00:00 21 28 Nordeste 48 Este 0 -- -- 67
2017-11-06 10:00:00 20.2 24 Nordeste 37 Nordeste 0 -- -- 69
2017-11-06 09:00:00 18.9 21 Nordeste 33 Nordeste 0 -- -- 69
2017-11-06 08:00:00 16.3 11 Nordeste 21 Nordeste 0 -- -- 78
2017-11-06 07:00:00 16.6 15 Nordeste 34 Nordeste 0 -- -- 80
2017-11-06 06:00:00 16.4 16 Nordeste 30 Nordeste 0 -- -- 77
2017-11-06 05:00:00 16.7 17 Nordeste 32 Nordeste 0 -- -- 80
2017-11-06 04:00:00 17.1 20 Nordeste 39 Nordeste 0 -- -- 78
2017-11-06 03:00:00 17.5 24 Nordeste 42 Nordeste 0 -- -- 78
2017-11-06 02:00:00 17.4 22 Nordeste 40 Nordeste 0 -- -- 80
2017-11-06 01:00:00 17.3 20 Nordeste 42 Nordeste 0 -- -- 82
2017-11-06 00:00:00 17.8 22 Nordeste 39 Nordeste 0 -- -- 77
2017-11-05 23:00:00 17.9 25 Nordeste 37 Nordeste 0 -- -- 71
2017-11-05 22:00:00 17.9 20 Nordeste 38 Nordeste 0 -- -- 70
2017-11-05 21:00:00 17.9 19 Nordeste 46 Nordeste 0 -- -- 73
2017-11-05 20:00:00 18.1 17 Nordeste 39 Nordeste 0 -- -- 72
2017-11-05 19:00:00 18.1 22 Nordeste 41 Norte 0 -- -- 68
2017-11-05 18:00:00 18.4 23 Nordeste 48 Nordeste 0 -- -- 73
2017-11-05 17:00:00 19.2 28 Nordeste 54 Este 0 -- -- 73
2017-11-05 16:00:00 20.6 29 Nordeste 52 Nordeste 0 -- -- 65
2017-11-05 15:00:00 21.4 30 Nordeste 54 Nordeste 0 -- -- 66
2017-11-05 14:00:00 21.2 34 Nordeste 60 Nordeste 0 -- -- 60
2017-11-05 13:00:00 21.2 25 Nordeste 47 Nordeste 0 -- -- 61
2017-11-05 12:00:00 20.6 29 Nordeste 51 Nordeste 0 -- -- 68
2017-11-05 11:00:00 21.1 24 Nordeste 49 Nordeste 0 -- -- 60
2017-11-05 10:00:00 20.7 28 Nordeste 46 Nordeste 0 -- -- 65
2017-11-05 09:00:00 19.4 23 Nordeste 42 Nordeste 0 -- -- 64
2017-11-05 08:00:00 17.6 18 Nordeste 39 Nordeste 0 -- -- 65
2017-11-05 07:00:00 16.5 18 Nordeste 30 Nordeste 0 -- -- 72
2017-11-05 06:00:00 16.8 15 Nordeste 35 Nordeste 0 -- -- 74
2017-11-05 05:00:00 17.2 19 Nordeste 31 Nordeste 0 -- -- 74
2017-11-05 04:00:00 17.1 17 Nordeste 35 Nordeste 0 -- -- 72
2017-11-05 03:00:00 16.7 10 Nordeste 31 Nordeste 0 -- -- 71
2017-11-05 02:00:00 17 17 Nordeste 28 Nordeste 0 -- -- 72
2017-11-05 01:00:00 16.6 15 Norte 26 Norte 0 -- -- 70
2017-11-05 00:00:00 16.3 12 Nordeste 20 Nordeste 0 -- -- 71
2017-11-04 23:00:00 16.4 12 Norte 21 Norte 0 -- -- 69
2017-11-04 22:00:00 16.6 12 Norte 22 Nordeste 0 -- -- 71
2017-11-04 21:00:00 16.6 10 Norte 30 Nordeste 0 -- -- 75
2017-11-04 20:00:00 17.7 18 Nordeste 39 Nordeste 0 -- -- 83
2017-11-04 19:00:00 18.1 22 Nordeste 37 Nordeste 0 -- -- 83
2017-11-04 18:00:00 18.3 20 Nordeste 35 Nordeste 0 -- -- 82
2017-11-04 17:00:00 18.2 19 Nordeste 33 Nordeste 0 -- -- 86
2017-11-04 16:00:00 18.8 18 Nordeste 36 Nordeste 0 -- -- 79
2017-11-04 15:00:00 20.5 21 Nordeste 37 Nordeste 0 -- -- 75
2017-11-04 14:00:00 22.3 24 Nordeste 35 Nordeste 0 -- -- 60
2017-11-04 13:00:00 20.7 24 Nordeste 43 Este 0 -- -- 72
2017-11-04 12:00:00 22.5 29 Este 53 Nordeste 0 -- -- 63
2017-11-04 11:00:00 21.8 25 Nordeste 38 Nordeste 0 -- -- 65
2017-11-04 10:00:00 21.1 21 Nordeste 31 Este 0 -- -- 67
2017-11-04 09:00:00 19.7 14 Nordeste 26 Nordeste 0 -- -- 69
2017-11-04 08:00:00 16 7 Noroeste 14 Noroeste 0 -- -- 79
2017-11-04 07:00:00 15.6 8 Noroeste 15 Noroeste 0 -- -- 83
2017-11-04 06:00:00 15.8 8 Noroeste 12 Noroeste 0 -- -- 80
2017-11-04 05:00:00 15.8 9 Noroeste 17 Noroeste 0 -- -- 80
2017-11-04 04:00:00 16.1 7 Norte 12 Norte 0 -- -- 82
2017-11-04 03:00:00 16.6 7 Noroeste 11 Noroeste 0 -- -- 81
2017-11-04 02:00:00 17.3 6 Noroeste 9 Noroeste 0 -- -- 82
2017-11-04 01:00:00 17.5 3 Norte 10 Nordeste 0 -- -- 83
2017-11-04 00:00:00 18 5 Noroeste 10 Oeste 0 -- -- 82
2017-11-03 23:00:00 18.2 5 Oeste 8 Oeste 0 -- -- 84
2017-11-03 22:00:00 18.1 0 Calma 6 Noroeste 0 -- -- 83
2017-11-03 21:00:00 17.9 4 Noroeste 6 Noroeste 0 -- -- 83
2017-11-03 20:00:00 18 3 Nordeste 5 Este 0 -- -- 81
2017-11-03 19:00:00 18.5 3 Este 9 Este 0 -- -- 80
2017-11-03 18:00:00 19.3 6 Este 10 Este 0 -- -- 73
2017-11-03 17:00:00 21.2 5 Este 11 Sudeste 0 -- -- 68
2017-11-03 16:00:00 20.6 6 Sudeste 14 Sudeste 0 -- -- 69
2017-11-03 15:00:00 20.2 6 Sur 17 Sudoeste 0 -- -- 69
2017-11-03 14:00:00 20.2 9 Sudoeste 17 Sudoeste 0 -- -- 67
2017-11-03 13:00:00 21 10 Sur 24 Sur 0 -- -- 64
2017-11-03 12:00:00 23.3 13 Sudeste 22 Sudeste 0 -- -- 57
2017-11-03 11:00:00 23.6 10 Sur 19 Sudeste 0 -- -- 56
2017-11-03 10:00:00 21.8 8 Sur 15 Sudeste 0 -- -- 59
2017-11-03 09:00:00 20.7 5 Sudeste 9 Sudeste 0 -- -- 61
2017-11-03 08:00:00 17 9 Noroeste 15 Noroeste 0 -- -- 66
2017-11-03 07:00:00 16.1 9 Noroeste 13 Noroeste 0 -- -- 67
2017-11-03 06:00:00 16 8 Noroeste 14 Oeste 0 -- -- 64
2017-11-03 05:00:00 16 12 Oeste 15 Oeste 0 -- -- 74
2017-11-03 04:00:00 16 10 Oeste 14 Oeste 0 -- -- 76
2017-11-03 03:00:00 16.1 10 Noroeste 18 Noroeste 0 -- -- 79
2017-11-03 02:00:00 16.1 8 Oeste 14 Noroeste 0 -- -- 81
2017-11-03 01:00:00 16.5 8 Noroeste 12 Noroeste 0 -- -- 80
2017-11-03 00:00:00 16.6 9 Noroeste 13 Oeste 0 -- -- 76
2017-11-02 23:00:00 16.7 6 Noroeste 13 Noroeste 0 -- -- 77
2017-11-02 22:00:00 17 8 Noroeste 12 Oeste 0 -- -- 76
2017-11-02 21:00:00 17.6 4 Noroeste 8 Noroeste 0 -- -- 76
2017-11-02 20:00:00 17.7 3 Nordeste 7 Nordeste 0 -- -- 78
2017-11-02 19:00:00 17.7 3 Este 8 Este 0 -- -- 79
2017-11-02 18:00:00 18.9 5 Este 10 Este 0 -- -- 74
2017-11-02 17:00:00 19.5 6 Este 15 Este 0 -- -- 72
2017-11-02 16:00:00 20.3 10 Este 16 Este 0 -- -- 68
2017-11-02 15:00:00 20.5 9 Este 17 Este 0 -- -- 68
2017-11-02 14:00:00 20.5 6 Este 16 Este 0 -- -- 67
2017-11-02 13:00:00 21.1 12 Nordeste 22 Este 0 -- -- 65
2017-11-02 12:00:00 22.2 11 Este 24 Este 0 -- -- 61
2017-11-02 11:00:00 22.8 11 Este 25 Este 0 -- -- 58
2017-11-02 10:00:00 20.7 10 Este 19 Nordeste 0 -- -- 64
2017-11-02 09:00:00 18.8 9 Nordeste 15 Este 0 -- -- 72
2017-11-02 08:00:00 16.6 12 Oeste 19 Oeste 0 -- -- 77
2017-11-02 07:00:00 16.5 14 Oeste 22 Oeste 0 -- -- 76
2017-11-02 06:00:00 16.5 9 Oeste 15 Oeste 0 -- -- 79
2017-11-02 05:00:00 16.6 7 Oeste 11 Oeste 0 -- -- 80
2017-11-02 04:00:00 16.4 2 Sudoeste 6 Noroeste 0 -- -- 85
2017-11-02 03:00:00 15.8 3 Oeste 10 Oeste 0 -- -- 86
2017-11-02 02:00:00 15.9 4 Noroeste 13 Oeste 0 -- -- 84
2017-11-02 01:00:00 16.9 5 Oeste 9 Oeste 0 -- -- 83
2017-11-02 00:00:00 16.7 6 Noroeste 12 Noroeste 0 -- -- 82
2017-11-01 23:00:00 17 9 Noroeste 13 Noroeste 0 -- -- 80
2017-11-01 22:00:00 18.3 6 Oeste 9 Oeste 0 -- -- 78
2017-11-01 21:00:00 18.3 4 Noroeste 10 Norte 0 -- -- 80
2017-11-01 20:00:00 18.3 10 Nordeste 19 Nordeste 0 -- -- 82
2017-11-01 19:00:00 18.2 13 Nordeste 20 Nordeste 0 -- -- 83
2017-11-01 18:00:00 18.8 12 Nordeste 23 Nordeste 0 -- -- 80
2017-11-01 17:00:00 20.5 14 Nordeste 26 Nordeste 0 -- -- 73
2017-11-01 16:00:00 21.6 15 Nordeste 26 Nordeste 0 -- -- 69
2017-11-01 15:00:00 22.4 16 Este 28 Nordeste 0 -- -- 66
2017-11-01 14:00:00 22.8 18 Nordeste 28 Este 0 -- -- 64
2017-11-01 13:00:00 22.8 17 Nordeste 30 Este 0 -- -- 65
2017-11-01 12:00:00 22.7 19 Nordeste 33 Este 0 -- -- 65
2017-11-01 11:00:00 21.5 21 Nordeste 32 Este 0 -- -- 68
2017-11-01 10:00:00 20.7 19 Nordeste 31 Este 0 -- -- 70
2017-11-01 09:00:00 19.4 16 Nordeste 36 Nordeste 0 -- -- 75
2017-11-01 08:00:00 16.4 9 Norte 16 Nordeste 0 -- -- 76
2017-11-01 07:00:00 15.2 9 Norte 17 Norte 0 -- -- 74
2017-11-01 06:00:00 15.2 10 Norte 15 Norte 0 -- -- 80
2017-11-01 05:00:00 15.5 9 Norte 18 Norte 0 -- -- 83
2017-11-01 04:00:00 15.5 10 Norte 18 Norte 0 -- -- 83
2017-11-01 03:00:00 15.5 9 Norte 17 Norte 0 -- -- 84
2017-11-01 02:00:00 15.5 7 Norte 17 Norte 0 -- -- 82
2017-11-01 01:00:00 15.9 10 Norte 18 Norte 0 -- -- 86
2017-11-01 00:00:00 16.5 9 Norte 16 Norte 0 -- -- 89
2017-10-31 23:00:00 16.9 9 Norte 17 Nordeste 0 -- -- 89
2017-10-31 22:00:00 17 6 Norte 15 Norte 0 -- -- 92
2017-10-31 21:00:00 16.7 6 Norte 12 Nordeste 0 -- -- 92
2017-10-31 20:00:00 17.3 4 Norte 13 Nordeste 0 -- -- 91
2017-10-31 19:00:00 18 9 Nordeste 14 Nordeste 0 -- -- 90
2017-10-31 18:00:00 19.3 10 Nordeste 20 Este 0 -- -- 84
2017-10-31 17:00:00 21.3 13 Nordeste 24 Nordeste 0 -- -- 76
2017-10-31 16:00:00 22.1 14 Nordeste 26 Nordeste 0 -- -- 72
2017-10-31 15:00:00 22.8 18 Nordeste 32 Nordeste 0 -- -- 70
2017-10-31 14:00:00 22.9 19 Nordeste 30 Este 0 -- -- 70
2017-10-31 13:00:00 23.2 19 Nordeste 31 Este 0 -- -- 68
2017-10-31 12:00:00 22.7 18 Nordeste 33 Nordeste 0 -- -- 69
2017-10-31 11:00:00 22.1 20 Nordeste 30 Este 0 -- -- 71
2017-10-31 10:00:00 21 17 Nordeste 25 Nordeste 0 -- -- 70
2017-10-31 09:00:00 19.5 13 Nordeste 19 Nordeste 0 -- -- 76
2017-10-31 08:00:00 16.6 5 Norte 12 Norte 0 -- -- 85
2017-10-31 07:00:00 15.1 8 Noroeste 13 Norte 0 -- -- 81
2017-10-31 06:00:00 15.6 7 Norte 14 Norte 0 -- -- 83
2017-10-31 05:00:00 15.7 9 Norte 14 Norte 0 -- -- 83
2017-10-31 04:00:00 16.3 5 Norte 10 Noroeste 0 -- -- 82
2017-10-31 03:00:00 16.4 7 Norte 10 Norte 0 -- -- 76
2017-10-31 02:00:00 16.5 6 Norte 13 Norte 0 -- -- 50
2017-10-31 01:00:00 16.3 7 Norte 12 Norte 0 -- -- 82
2017-10-31 00:00:00 16.9 7 Norte 13 Norte 0 -- -- 81
2017-10-30 23:00:00 17.2 7 Norte 12 Nordeste 0 -- -- 71
2017-10-30 22:00:00 17.2 6 Norte 12 Nordeste 0 -- -- 88
2017-10-30 21:00:00 17.2 6 Norte 11 Norte 0 -- -- 88
2017-10-30 20:00:00 17.5 4 Norte 9 Noroeste 0 -- -- 89
2017-10-30 19:00:00 18.3 6 Nordeste 13 Nordeste 0 -- -- 89
2017-10-30 18:00:00 19.6 10 Nordeste 18 Este 0 -- -- 84
2017-10-30 17:00:00 21.9 11 Nordeste 19 Nordeste 0 -- -- 75
2017-10-30 16:00:00 22.6 12 Nordeste 23 Nordeste 0 -- -- 73
2017-10-30 15:00:00 23.4 16 Este 26 Este 0 -- -- 70
2017-10-30 14:00:00 23.7 15 Nordeste 25 Este 0 -- -- 69
2017-10-30 13:00:00 24.1 15 Este 28 Este 0 -- -- 67
2017-10-30 12:00:00 23.8 15 Este 27 Nordeste 0 -- -- 67
2017-10-30 11:00:00 23.2 15 Nordeste 21 Este 0 -- -- 69
2017-10-30 10:00:00 23 9 Este 14 Nordeste 0 -- -- 65
2017-10-30 09:00:00 20.3 4 Nordeste 9 Nordeste 0 -- -- 65
2017-10-30 08:00:00 16.1 5 Norte 10 Noroeste 0 -- -- 88
2017-10-30 07:00:00 15.4 5 Noroeste 7 Noroeste 0 -- -- 93
2017-10-30 06:00:00 15.5 3 Noroeste 11 Noroeste 0 -- -- 94
2017-10-30 05:00:00 15.3 7 Noroeste 12 Noroeste 0 -- -- 93
2017-10-30 04:00:00 15.7 6 Noroeste 12 Noroeste 0 -- -- 92
2017-10-30 03:00:00 16.3 3 Noroeste 12 Noroeste 0 -- -- 92
2017-10-30 02:00:00 16.7 8 Noroeste 12 Noroeste 0 -- -- 91
2017-10-30 01:00:00 17 4 Norte 9 Noroeste 0 -- -- 91
2017-10-30 00:00:00 17.2 3 Noroeste 6 Noroeste 0 -- -- 90
2017-10-29 23:00:00 17.7 4 Norte 9 Oeste 0 -- -- 89
2017-10-29 22:00:00 18.4 5 Oeste 10 Sudoeste 0 -- -- 90
2017-10-29 21:00:00 18.7 8 Sudoeste 13 Sudoeste 0 -- -- 91
2017-10-29 20:00:00 19.3 8 Sur 12 Sur 0 -- -- 89
2017-10-29 19:00:00 19.8 4 Nordeste 13 Este 0 -- -- 89
2017-10-29 18:00:00 20.3 8 Nordeste 15 Este 0 -- -- 86
2017-10-29 17:00:00 22.4 10 Nordeste 17 Nordeste 0 -- -- 78
2017-10-29 16:00:00 24.1 10 Nordeste 20 Nordeste 0 -- -- 71
2017-10-29 15:00:00 25.2 11 Este 20 Este 0 -- -- 67
2017-10-29 14:00:00 26.3 12 Este 18 Nordeste 0 -- -- 63
2017-10-29 13:00:00 26.8 9 Este 21 Este 0 -- -- 62
2017-10-29 12:00:00 26.1 14 Nordeste 19 Este 0 -- -- 60
2017-10-29 11:00:00 25.8 11 Este 17 Este 0 -- -- 60
2017-10-29 10:00:00 24.6 10 Este 17 Este 0 -- -- 62
2017-10-29 09:00:00 22.6 6 Este 12 Este 0 -- -- 66
2017-10-29 08:00:00 20.2 4 Nordeste 13 Nordeste 0 -- -- 35
2017-10-29 07:00:00 17.7 3 Sudoeste 4 Sudoeste 0 -- -- 62
2017-10-29 06:00:00 18.3 0 Calma 6 Este 0 -- -- 49
2017-10-29 05:00:00 20.1 2 Norte 10 Norte 0 -- -- 27
2017-10-29 04:00:00 21.4 6 Norte 10 Norte 0 -- -- 22
2017-10-29 03:00:00 22.5 6 Norte 12 Norte 0 -- -- 21
2017-10-29 02:00:00 21.6 5 Nordeste 12 Norte 0 -- -- 24
2017-10-29 01:00:00 22.2 5 Nordeste 21 Nordeste 0 -- -- 29
2017-10-29 00:00:00 22.4 7 Norte 14 Norte 0 -- -- 26
2017-10-28 23:00:00 21.6 4 Nordeste 11 Nordeste 0 -- -- 32
2017-10-28 22:00:00 21.2 4 Norte 8 Nordeste 0 -- -- 39
2017-10-28 21:00:00 21 2 Oeste 5 Oeste 0 -- -- 48
2017-10-28 20:00:00 22.2 3 Oeste 6 Oeste 0 -- -- 49
2017-10-28 19:00:00 24.6 5 Nordeste 14 Nordeste 0 -- -- 35
2017-10-28 18:00:00 25.4 5 Nordeste 12 Norte 0 -- -- 44
2017-10-28 17:00:00 25 5 Nordeste 9 Este 0 -- -- 49
2017-10-28 16:00:00 25.4 5 Nordeste 12 Nordeste 0 -- -- 46
2017-10-28 15:00:00 26.7 5 Este 13 Este 0 -- -- 41
2017-10-28 14:00:00 28.3 6 Este 15 Este 0 -- -- 34
2017-10-28 13:00:00 28.3 7 Este 13 Este 0 -- -- 30
2017-10-28 12:00:00 27.3 6 Este 11 Sudeste 0 -- -- 31
2017-10-28 11:00:00 24.7 4 Sur 8 Sur 0 -- -- 35
2017-10-28 10:00:00 23.3 4 Sudoeste 6 Sur 0 -- -- 29
2017-10-28 09:00:00 22.6 4 Sudoeste 9 Sudoeste 0 -- -- 29
2017-10-28 08:00:00 23 5 Oeste 17 Noroeste 0 -- -- 29
2017-10-28 07:00:00 23.3 3 Oeste 10 Noroeste 0 -- -- 29
2017-10-28 06:00:00 23.2 5 Noroeste 13 Noroeste 0 -- -- 29
2017-10-28 05:00:00 22.4 9 Noroeste 15 Norte 0 -- -- 30
2017-10-28 04:00:00 22.7 9 Noroeste 18 Nordeste 0 -- -- 30
2017-10-28 03:00:00 23.1 7 Norte 16 Norte 0 -- -- 30
2017-10-28 02:00:00 22 9 Noroeste 15 Norte 0 -- -- 31
2017-10-28 01:00:00 22.9 8 Noroeste 16 Nordeste 0 -- -- 29
2017-10-28 00:00:00 22.9 8 Nordeste 17 Norte 0 -- -- 31
2017-10-27 23:00:00 24.7 10 Norte 25 Norte 0 -- -- 29
2017-10-27 22:00:00 24.6 13 Norte 26 Norte 0 -- -- 30
2017-10-27 21:00:00 23.3 9 Nordeste 15 Nordeste 0 -- -- 41
2017-10-27 20:00:00 23.2 7 Noroeste 10 Norte 0 -- -- 42
2017-10-27 19:00:00 24.2 4 Nordeste 6 Sur 0 -- -- 52
2017-10-27 18:00:00 25.9 5 Sudeste 12 Sudeste 0 -- -- 47
2017-10-27 17:00:00 27.7 8 Sudeste 15 Sudeste 0 -- -- 34
2017-10-27 16:00:00 27.9 8 Sudeste 20 Este 0 -- -- 41
2017-10-27 15:00:00 28.1 12 Este 24 Este 0 -- -- 38
2017-10-27 14:00:00 29.8 15 Este 24 Este 0 -- -- 34
2017-10-27 13:00:00 29.5 13 Este 24 Este 0 -- -- 35
2017-10-27 12:00:00 30.8 6 Este 16 Sudeste 0 -- -- 29
2017-10-27 11:00:00 29.3 6 Sudoeste 13 Sudoeste 0 -- -- 25
2017-10-27 10:00:00 27.6 5 Norte 28 Noroeste 0 -- -- 27
2017-10-27 09:00:00 24.3 9 Noroeste 21 Oeste 0 -- -- 31
2017-10-27 08:00:00 23.5 15 Noroeste 24 Noroeste 0 -- -- 32
2017-10-27 07:00:00 24.2 9 Oeste 21 Oeste 0 -- -- 31
2017-10-27 06:00:00 23.7 15 Oeste 21 Oeste 0 -- -- 27
2017-10-27 05:00:00 24.3 5 Noroeste 22 Noroeste 0 -- -- 26
2017-10-27 04:00:00 24.7 14 Oeste 23 Noroeste 0 -- -- 25
2017-10-27 03:00:00 24.2 10 Noroeste 17 Noroeste 0 -- -- 28
2017-10-27 02:00:00 23.7 10 Norte 19 Nordeste 0 -- -- 31
2017-10-27 01:00:00 25.2 10 Noroeste 17 Noroeste 0 -- -- 28
2017-10-27 00:00:00 24.9 9 Noroeste 12 Noroeste 0 -- -- 29
2017-10-26 23:00:00 25.3 7 Norte 14 Norte 0 -- -- 28
2017-10-26 22:00:00 24.8 10 Noroeste 13 Noroeste 0 -- -- 28
2017-10-26 21:00:00 25.4 4 Noroeste 10 Noroeste 0 -- -- 28
2017-10-26 20:00:00 25.7 4 Oeste 17 Noroeste 0 -- -- 27
2017-10-26 19:00:00 26.9 2 Sur 14 Sudoeste 0 -- -- 28
2017-10-26 18:00:00 27.6 10 Sudoeste 19 Sur 0 -- -- 28
2017-10-26 17:00:00 28.2 13 Sur 21 Sur 0 -- -- 27
2017-10-26 16:00:00 31.5 13 Sur 26 Sur 0 -- -- 23
2017-10-26 15:00:00 30.7 10 Sur 21 Sur 0 -- -- 23
2017-10-26 14:00:00 30.7 16 Sur 29 Sur 0 -- -- 22
2017-10-26 13:00:00 30.4 10 Sur 25 Sudoeste 0 -- -- 23
2017-10-26 12:00:00 30.7 14 Sur 26 Sudeste 0 -- -- 24
2017-10-26 11:00:00 29.9 11 Sudoeste 22 Sur 0 -- -- 25
2017-10-26 10:00:00 29.3 5 Sudeste 20 Sur 0 -- -- 26
2017-10-26 09:00:00 26.6 12 Oeste 22 Oeste 0 -- -- 28
2017-10-26 08:00:00 25.7 10 Noroeste 22 Oeste 0 -- -- 29
2017-10-26 07:00:00 26.1 11 Noroeste 22 Noroeste 0 -- -- 29
2017-10-26 06:00:00 25.4 12 Noroeste 18 Oeste 0 -- -- 30
2017-10-26 05:00:00 25.3 4 Oeste 12 Noroeste 0 -- -- 30
2017-10-26 04:00:00 25.7 7 Noroeste 24 Oeste 0 -- -- 28
2017-10-26 03:00:00 26.2 15 Noroeste 22 Noroeste 0 -- -- 28
2017-10-26 02:00:00 24.9 9 Noroeste 17 Noroeste 0 -- -- 30
2017-10-26 01:00:00 24.4 8 Noroeste 14 Noroeste 0 -- -- 31
2017-10-26 00:00:00 23.2 12 Noroeste 14 Noroeste 0 -- -- 36